HAZ2907 ZSHC-ZYCC
Flight info
| Callsign | HAZ2907 |
|---|---|
| Flight time | N/A |
| Altitude | 35100 |
| Route | SUPAR B221 GOVNI V140 IDNIK V141 ALDAP B221 XDX DCT URBAD W172 IGDEG W173 NIXEP W8 DOBGA W202 UDETI A588 LEMOT |
| Aircraft | A20N/M-SDE2E3FGHIRWXY/LB1 |
Departure
| Time | 2026-05-08 10:38 |
|---|---|
| Airport | Hangzhou Xiaoshan International Airport (ZSHC) |
Arrival
| Time | N/A |
|---|---|
| Airport | Changchun Longjia International Airport (ZYCC) |
| Time | Latitude | Longitude | Altitude | Speed | Heading |
|---|---|---|---|---|---|
| 2026-05-08 10:03 | 30.24140 | 120.42701 | 28 ft | 0 kts | 162° |
| 2026-05-08 10:20 | 30.24148 | 120.42698 | 28 ft | 2 kts | 162° |
| 2026-05-08 10:21 | 30.24162 | 120.42693 | 29 ft | 2 kts | 162° |
| 2026-05-08 10:21 | 30.24176 | 120.42688 | 29 ft | 2 kts | 162° |
| 2026-05-08 10:21 | 30.24191 | 120.42683 | 29 ft | 2 kts | 162° |
| 2026-05-08 10:21 | 30.24203 | 120.42678 | 29 ft | 0 kts | 162° |
| 2026-05-08 10:22 | 30.24214 | 120.42673 | 29 ft | 2 kts | 142° |
| 2026-05-08 10:22 | 30.24224 | 120.42660 | 29 ft | 2 kts | 118° |
| 2026-05-08 10:22 | 30.24229 | 120.42645 | 28 ft | 2 kts | 94° |
| 2026-05-08 10:22 | 30.24227 | 120.42627 | 29 ft | 1 kts | 69° |
| 2026-05-08 10:23 | 30.24224 | 120.42620 | 29 ft | 1 kts | 59° |
| 2026-05-08 10:23 | 30.24223 | 120.42617 | 29 ft | 0 kts | 62° |
| 2026-05-08 10:25 | 30.24225 | 120.42621 | 28 ft | 1 kts | 62° |
| 2026-05-08 10:25 | 30.24236 | 120.42648 | 28 ft | 5 kts | 63° |
| 2026-05-08 10:26 | 30.24259 | 120.42701 | 28 ft | 9 kts | 63° |
| 2026-05-08 10:26 | 30.24294 | 120.42779 | 28 ft | 12 kts | 63° |
| 2026-05-08 10:26 | 30.24340 | 120.42870 | 28 ft | 12 kts | 60° |
| 2026-05-08 10:26 | 30.24386 | 120.42973 | 28 ft | 15 kts | 62° |
| 2026-05-08 10:27 | 30.24431 | 120.43076 | 29 ft | 13 kts | 62° |
| 2026-05-08 10:27 | 30.24477 | 120.43179 | 28 ft | 15 kts | 63° |
| 2026-05-08 10:27 | 30.24525 | 120.43291 | 29 ft | 14 kts | 70° |
| 2026-05-08 10:27 | 30.24477 | 120.43378 | 28 ft | 15 kts | 157° |
| 2026-05-08 10:28 | 30.24369 | 120.43439 | 29 ft | 18 kts | 149° |
| 2026-05-08 10:28 | 30.24249 | 120.43509 | 29 ft | 20 kts | 152° |
| 2026-05-08 10:28 | 30.24120 | 120.43587 | 28 ft | 21 kts | 153° |
| 2026-05-08 10:28 | 30.23986 | 120.43666 | 28 ft | 20 kts | 152° |
| 2026-05-08 10:29 | 30.23852 | 120.43749 | 28 ft | 22 kts | 155° |
| 2026-05-08 10:29 | 30.23739 | 120.43811 | 28 ft | 16 kts | 152° |
| 2026-05-08 10:29 | 30.23631 | 120.43875 | 28 ft | 18 kts | 153° |
| 2026-05-08 10:29 | 30.23509 | 120.43946 | 28 ft | 19 kts | 153° |
| 2026-05-08 10:30 | 30.23428 | 120.43990 | 28 ft | 11 kts | 165° |
| 2026-05-08 10:30 | 30.23362 | 120.43939 | 28 ft | 13 kts | 242° |
| 2026-05-08 10:30 | 30.23313 | 120.43829 | 28 ft | 16 kts | 243° |
| 2026-05-08 10:30 | 30.23256 | 120.43699 | 28 ft | 19 kts | 243° |
| 2026-05-08 10:31 | 30.23191 | 120.43552 | 28 ft | 21 kts | 243° |
| 2026-05-08 10:31 | 30.23120 | 120.43392 | 28 ft | 23 kts | 242° |
| 2026-05-08 10:31 | 30.23045 | 120.43220 | 28 ft | 24 kts | 242° |
| 2026-05-08 10:31 | 30.22965 | 120.43042 | 29 ft | 25 kts | 243° |
| 2026-05-08 10:32 | 30.22893 | 120.42879 | 28 ft | 22 kts | 243° |
| 2026-05-08 10:32 | 30.22819 | 120.42712 | 28 ft | 24 kts | 243° |
| 2026-05-08 10:32 | 30.22741 | 120.42535 | 28 ft | 25 kts | 242° |
| 2026-05-08 10:32 | 30.22673 | 120.42381 | 28 ft | 21 kts | 243° |
| 2026-05-08 10:33 | 30.22601 | 120.42220 | 28 ft | 23 kts | 243° |
| 2026-05-08 10:33 | 30.22532 | 120.42062 | 29 ft | 14 kts | 243° |
| 2026-05-08 10:33 | 30.22485 | 120.41955 | 28 ft | 15 kts | 243° |
| 2026-05-08 10:33 | 30.22435 | 120.41843 | 28 ft | 15 kts | 243° |
| 2026-05-08 10:34 | 30.22393 | 120.41750 | 28 ft | 9 kts | 240° |
| 2026-05-08 10:34 | 30.22340 | 120.41714 | 28 ft | 9 kts | 159° |
| 2026-05-08 10:34 | 30.22313 | 120.41730 | 28 ft | 0 kts | 152° |
| 2026-05-08 10:36 | 30.22306 | 120.41734 | 28 ft | 2 kts | 153° |
| 2026-05-08 10:36 | 30.22282 | 120.41748 | 29 ft | 5 kts | 153° |
| 2026-05-08 10:36 | 30.22239 | 120.41781 | 29 ft | 8 kts | 129° |
| 2026-05-08 10:37 | 30.22240 | 120.41841 | 28 ft | 0 kts | 61° |
| 2026-05-08 10:37 | 30.22240 | 120.41842 | 28 ft | 0 kts | 61° |
| 2026-05-08 10:37 | 30.22312 | 120.42004 | 29 ft | 57 kts | 64° |
| 2026-05-08 10:37 | 30.22595 | 120.42660 | 29 ft | 122 kts | 62° |
| 2026-05-08 10:38 | 30.23041 | 120.43680 | 261 ft | 149 kts | 66° |
| 2026-05-08 10:38 | 30.23505 | 120.44741 | 821 ft | 150 kts | 63° |
| 2026-05-08 10:38 | 30.23923 | 120.45831 | 1448 ft | 149 kts | 82° |
| 2026-05-08 10:38 | 30.23886 | 120.46997 | 2022 ft | 151 kts | 95° |
| 2026-05-08 10:39 | 30.23751 | 120.48247 | 2386 ft | 166 kts | 95° |
| 2026-05-08 10:39 | 30.23605 | 120.49636 | 2760 ft | 183 kts | 95° |
| 2026-05-08 10:39 | 30.23449 | 120.51175 | 3153 ft | 200 kts | 94° |
| 2026-05-08 10:39 | 30.23287 | 120.52844 | 3455 ft | 223 kts | 94° |
| 2026-05-08 10:40 | 30.23109 | 120.54695 | 3916 ft | 241 kts | 94° |
| 2026-05-08 10:40 | 30.22884 | 120.56678 | 4499 ft | 255 kts | 98° |
| 2026-05-08 10:40 | 30.22481 | 120.58694 | 5303 ft | 260 kts | 104° |
| 2026-05-08 10:40 | 30.21951 | 120.60681 | 6127 ft | 264 kts | 105° |
| 2026-05-08 10:41 | 30.21388 | 120.62736 | 6922 ft | 269 kts | 105° |
| 2026-05-08 10:41 | 30.20821 | 120.64794 | 7662 ft | 276 kts | 105° |
| 2026-05-08 10:41 | 30.20234 | 120.66932 | 8418 ft | 282 kts | 105° |
| 2026-05-08 10:41 | 30.19638 | 120.69109 | 9126 ft | 289 kts | 106° |
| 2026-05-08 10:42 | 30.18917 | 120.71286 | 9607 ft | 295 kts | 114° |
| 2026-05-08 10:42 | 30.17933 | 120.73402 | 9840 ft | 299 kts | 120° |
| 2026-05-08 10:42 | 30.16835 | 120.75450 | 9853 ft | 300 kts | 121° |
| 2026-05-08 10:42 | 30.15722 | 120.77479 | 9849 ft | 300 kts | 121° |
| 2026-05-08 10:43 | 30.14605 | 120.79520 | 9855 ft | 300 kts | 121° |
| 2026-05-08 10:43 | 30.13450 | 120.81521 | 9854 ft | 300 kts | 130° |
| 2026-05-08 10:43 | 30.11779 | 120.82963 | 9837 ft | 302 kts | 158° |
| 2026-05-08 10:43 | 30.09780 | 120.83646 | 9845 ft | 302 kts | 167° |
| 2026-05-08 10:44 | 30.07751 | 120.84380 | 9825 ft | 302 kts | 150° |
| 2026-05-08 10:44 | 30.06227 | 120.85960 | 9829 ft | 300 kts | 122° |
| 2026-05-08 10:44 | 30.05470 | 120.88182 | 9855 ft | 299 kts | 95° |
| 2026-05-08 10:44 | 30.05620 | 120.90552 | 10227 ft | 302 kts | 70° |
| 2026-05-08 10:45 | 30.06599 | 120.92688 | 10935 ft | 303 kts | 51° |
| 2026-05-08 10:45 | 30.07898 | 120.94669 | 11331 ft | 319 kts | 50° |
| 2026-05-08 10:45 | 30.09285 | 120.96761 | 11654 ft | 337 kts | 50° |
| 2026-05-08 10:45 | 30.10738 | 120.98976 | 11957 ft | 355 kts | 51° |
| 2026-05-08 10:46 | 30.12238 | 121.01283 | 12266 ft | 371 kts | 51° |
| 2026-05-08 10:46 | 30.13813 | 121.03722 | 12799 ft | 379 kts | 51° |
| 2026-05-08 10:46 | 30.15371 | 121.06144 | 13441 ft | 382 kts | 51° |
| 2026-05-08 10:46 | 30.16969 | 121.08632 | 14072 ft | 387 kts | 50° |
| 2026-05-08 10:47 | 30.18590 | 121.11152 | 14595 ft | 393 kts | 50° |
| 2026-05-08 10:47 | 30.20217 | 121.13683 | 15082 ft | 401 kts | 50° |
| 2026-05-08 10:47 | 30.21891 | 121.16290 | 15559 ft | 408 kts | 50° |
| 2026-05-08 10:47 | 30.23589 | 121.18935 | 16044 ft | 414 kts | 50° |
| 2026-05-08 10:48 | 30.25303 | 121.21622 | 16513 ft | 421 kts | 51° |
| 2026-05-08 10:48 | 30.26983 | 121.24470 | 16975 ft | 428 kts | 53° |
| 2026-05-08 10:48 | 30.28608 | 121.27333 | 17420 ft | 434 kts | 54° |
| 2026-05-08 10:48 | 30.30272 | 121.30290 | 17851 ft | 440 kts | 53° |
| 2026-05-08 10:49 | 30.31938 | 121.33246 | 18312 ft | 445 kts | 53° |
| 2026-05-08 10:49 | 30.33628 | 121.36243 | 18820 ft | 448 kts | 53° |
| 2026-05-08 10:49 | 30.35414 | 121.39192 | 19431 ft | 446 kts | 49° |
| 2026-05-08 10:49 | 30.37355 | 121.42007 | 19944 ft | 447 kts | 45° |
| 2026-05-08 10:50 | 30.39391 | 121.44715 | 20413 ft | 450 kts | 44° |
| 2026-05-08 10:50 | 30.41495 | 121.47395 | 20854 ft | 452 kts | 40° |
| 2026-05-08 10:50 | 30.43816 | 121.49880 | 21295 ft | 452 kts | 34° |
| 2026-05-08 10:50 | 30.46322 | 121.52055 | 21723 ft | 451 kts | 28° |
| 2026-05-08 10:51 | 30.48948 | 121.54005 | 22176 ft | 452 kts | 26° |
| 2026-05-08 10:51 | 30.51645 | 121.55933 | 22564 ft | 456 kts | 25° |
| 2026-05-08 10:51 | 30.54363 | 121.57865 | 22962 ft | 460 kts | 25° |
| 2026-05-08 10:51 | 30.57074 | 121.59801 | 23335 ft | 465 kts | 25° |
| 2026-05-08 10:52 | 30.59857 | 121.61797 | 23603 ft | 472 kts | 25° |
| 2026-05-08 10:52 | 30.62660 | 121.63816 | 23964 ft | 476 kts | 25° |
| 2026-05-08 10:52 | 30.65497 | 121.65868 | 24375 ft | 479 kts | 25° |
| 2026-05-08 10:52 | 30.68321 | 121.67915 | 24712 ft | 483 kts | 25° |
| 2026-05-08 10:53 | 30.71151 | 121.69968 | 25092 ft | 485 kts | 26° |
| 2026-05-08 10:53 | 30.74039 | 121.72064 | 25460 ft | 488 kts | 26° |
| 2026-05-08 10:53 | 30.76899 | 121.74142 | 25798 ft | 491 kts | 25° |
| 2026-05-08 10:53 | 30.79826 | 121.76271 | 26136 ft | 494 kts | 25° |
| 2026-05-08 10:54 | 30.82757 | 121.78404 | 26444 ft | 497 kts | 25° |
| 2026-05-08 10:54 | 30.85679 | 121.80531 | 26806 ft | 498 kts | 25° |
| 2026-05-08 10:54 | 30.88618 | 121.82677 | 27250 ft | 497 kts | 25° |
| 2026-05-08 10:54 | 30.91508 | 121.84788 | 27587 ft | 498 kts | 25° |
| 2026-05-08 10:55 | 30.94460 | 121.86942 | 27858 ft | 501 kts | 25° |
| 2026-05-08 10:55 | 30.97417 | 121.89098 | 28124 ft | 503 kts | 25° |
| 2026-05-08 10:55 | 31.00401 | 121.91275 | 28381 ft | 506 kts | 25° |
| 2026-05-08 10:55 | 31.03389 | 121.93459 | 28656 ft | 507 kts | 25° |
| 2026-05-08 10:56 | 31.06349 | 121.95629 | 29019 ft | 507 kts | 25° |
| 2026-05-08 10:56 | 31.09322 | 121.97810 | 29418 ft | 505 kts | 24° |
| 2026-05-08 10:56 | 31.12321 | 122.00010 | 29825 ft | 504 kts | 24° |
| 2026-05-08 10:56 | 31.15274 | 122.02179 | 30219 ft | 502 kts | 24° |
| 2026-05-08 10:57 | 31.18226 | 122.04348 | 30601 ft | 501 kts | 24° |
| 2026-05-08 10:57 | 31.21140 | 122.06490 | 30987 ft | 499 kts | 24° |
| 2026-05-08 10:57 | 31.27023 | 122.10817 | 31774 ft | 496 kts | 24° |
| 2026-05-08 10:58 | 31.29898 | 122.12935 | 32142 ft | 494 kts | 24° |
| 2026-05-08 10:58 | 31.32806 | 122.15079 | 32506 ft | 492 kts | 24° |
| 2026-05-08 10:58 | 31.35709 | 122.17218 | 32819 ft | 491 kts | 24° |
| 2026-05-08 10:58 | 31.38583 | 122.19339 | 33111 ft | 490 kts | 23° |
| 2026-05-08 10:59 | 31.41448 | 122.21452 | 33418 ft | 489 kts | 23° |
| 2026-05-08 10:59 | 31.44338 | 122.23588 | 33629 ft | 490 kts | 23° |
| 2026-05-08 10:59 | 31.47197 | 122.25698 | 33770 ft | 492 kts | 23° |
| 2026-05-08 10:59 | 31.50125 | 122.27867 | 33988 ft | 492 kts | 23° |
| 2026-05-08 11:00 | 31.53015 | 122.30006 | 34168 ft | 492 kts | 22° |
| 2026-05-08 11:00 | 31.55996 | 122.31859 | 34345 ft | 482 kts | 13° |
| 2026-05-08 11:00 | 31.59084 | 122.33139 | 34507 ft | 469 kts | 4° |
| 2026-05-08 11:00 | 31.62260 | 122.33868 | 34661 ft | 458 kts | 356° |
| 2026-05-08 11:01 | 31.65417 | 122.34051 | 34789 ft | 448 kts | 348° |
| 2026-05-08 11:01 | 31.68473 | 122.33736 | 34937 ft | 437 kts | 340° |
| 2026-05-08 11:01 | 31.71405 | 122.32960 | 35134 ft | 426 kts | 333° |
| 2026-05-08 11:01 | 31.74155 | 122.31821 | 35276 ft | 420 kts | 329° |
| 2026-05-08 11:02 | 31.82169 | 122.27749 | 35292 ft | 420 kts | 328° |
| 2026-05-08 11:03 | 31.87617 | 122.25248 | 35293 ft | 423 kts | 329° |
| 2026-05-08 11:03 | 31.93117 | 122.22766 | 35295 ft | 423 kts | 329° |
| 2026-05-08 11:04 | 31.98609 | 122.20286 | 35289 ft | 423 kts | 329° |
| 2026-05-08 11:04 | 32.04081 | 122.17808 | 35295 ft | 422 kts | 329° |
| 2026-05-08 11:05 | 32.09550 | 122.15330 | 35294 ft | 422 kts | 329° |
| 2026-05-08 11:05 | 32.15070 | 122.12823 | 35297 ft | 425 kts | 329° |
| 2026-05-08 11:06 | 32.20571 | 122.10322 | 35294 ft | 424 kts | 329° |
| 2026-05-08 11:06 | 32.26074 | 122.07818 | 35293 ft | 422 kts | 329° |
| 2026-05-08 11:07 | 32.31555 | 122.05320 | 35294 ft | 422 kts | 329° |
| 2026-05-08 11:07 | 32.37049 | 122.02811 | 35291 ft | 423 kts | 330° |
| 2026-05-08 11:08 | 32.42520 | 122.00311 | 35292 ft | 421 kts | 329° |
| 2026-05-08 11:08 | 32.47982 | 121.97810 | 35293 ft | 424 kts | 330° |
| 2026-05-08 11:09 | 32.53491 | 121.95286 | 35288 ft | 424 kts | 329° |
| 2026-05-08 11:09 | 32.58986 | 121.92763 | 35301 ft | 423 kts | 330° |
| 2026-05-08 11:10 | 32.64478 | 121.90244 | 35303 ft | 424 kts | 329° |
| 2026-05-08 11:10 | 32.69974 | 121.87713 | 35298 ft | 422 kts | 330° |
| 2026-05-08 11:11 | 32.75410 | 121.85208 | 35299 ft | 422 kts | 329° |
| 2026-05-08 11:11 | 32.80883 | 121.82684 | 35297 ft | 423 kts | 329° |
| 2026-05-08 11:12 | 32.86372 | 121.80147 | 35304 ft | 424 kts | 329° |
| 2026-05-08 11:12 | 32.91880 | 121.77599 | 35293 ft | 424 kts | 329° |
| 2026-05-08 11:13 | 32.97389 | 121.75047 | 35294 ft | 424 kts | 329° |
| 2026-05-08 11:13 | 33.02865 | 121.72506 | 35294 ft | 424 kts | 330° |
| 2026-05-08 11:14 | 33.08366 | 121.69951 | 35288 ft | 424 kts | 330° |
| 2026-05-08 11:14 | 33.13836 | 121.67407 | 35289 ft | 424 kts | 330° |
| 2026-05-08 11:15 | 33.19339 | 121.64843 | 35290 ft | 424 kts | 329° |
| 2026-05-08 11:15 | 33.24810 | 121.62289 | 35281 ft | 422 kts | 329° |
| 2026-05-08 11:16 | 33.30188 | 121.59602 | 35277 ft | 419 kts | 328° |
| 2026-05-08 11:16 | 33.35566 | 121.56817 | 35285 ft | 420 kts | 328° |
| 2026-05-08 11:17 | 33.40908 | 121.54057 | 35280 ft | 419 kts | 328° |
| 2026-05-08 11:17 | 33.46261 | 121.51296 | 35279 ft | 420 kts | 328° |
| 2026-05-08 11:18 | 33.51607 | 121.48537 | 35278 ft | 418 kts | 328° |
| 2026-05-08 11:18 | 33.56975 | 121.45763 | 35267 ft | 419 kts | 328° |
| 2026-05-08 11:19 | 33.62325 | 121.42992 | 35268 ft | 420 kts | 328° |
| 2026-05-08 11:19 | 33.67673 | 121.40230 | 35270 ft | 418 kts | 329° |
| 2026-05-08 11:20 | 33.73099 | 121.37664 | 35261 ft | 420 kts | 330° |
| 2026-05-08 11:20 | 33.78536 | 121.35122 | 35264 ft | 421 kts | 330° |
| 2026-05-08 11:21 | 33.83978 | 121.32558 | 35133 ft | 421 kts | 329° |
| 2026-05-08 11:21 | 33.89429 | 121.29981 | 35233 ft | 420 kts | 329° |
| 2026-05-08 11:22 | 33.94844 | 121.27414 | 35259 ft | 418 kts | 329° |
| 2026-05-08 11:22 | 34.00255 | 121.24842 | 35261 ft | 417 kts | 329° |
| 2026-05-08 11:23 | 34.05644 | 121.22280 | 35249 ft | 418 kts | 329° |
| 2026-05-08 11:23 | 34.11055 | 121.19698 | 35251 ft | 418 kts | 329° |
| 2026-05-08 11:24 | 34.16458 | 121.17121 | 35248 ft | 417 kts | 329° |
| 2026-05-08 11:24 | 34.21870 | 121.14533 | 35251 ft | 416 kts | 329° |
| 2026-05-08 11:25 | 34.27247 | 121.11959 | 35245 ft | 416 kts | 329° |
| 2026-05-08 11:25 | 34.32608 | 121.09392 | 35247 ft | 416 kts | 329° |
| 2026-05-08 11:26 | 34.37981 | 121.06812 | 35245 ft | 417 kts | 328° |
| 2026-05-08 11:26 | 34.43373 | 121.04220 | 35250 ft | 414 kts | 329° |
| 2026-05-08 11:27 | 34.48722 | 121.01646 | 35243 ft | 415 kts | 329° |
| 2026-05-08 11:27 | 34.54090 | 120.99060 | 35241 ft | 415 kts | 328° |
| 2026-05-08 11:28 | 34.59469 | 120.96462 | 35244 ft | 415 kts | 329° |
| 2026-05-08 11:28 | 34.64847 | 120.93867 | 35239 ft | 416 kts | 328° |
| 2026-05-08 11:29 | 34.70190 | 120.91278 | 35232 ft | 415 kts | 328° |
| 2026-05-08 11:29 | 34.75549 | 120.88682 | 35237 ft | 413 kts | 329° |
| 2026-05-08 11:30 | 34.80870 | 120.86101 | 35237 ft | 413 kts | 328° |
| 2026-05-08 11:30 | 34.86243 | 120.83487 | 35236 ft | 413 kts | 328° |
| 2026-05-08 11:31 | 34.91538 | 120.80911 | 35232 ft | 413 kts | 328° |
| 2026-05-08 11:31 | 34.96891 | 120.78297 | 35228 ft | 415 kts | 328° |
| 2026-05-08 11:32 | 35.02253 | 120.75683 | 35230 ft | 414 kts | 328° |
| 2026-05-08 11:32 | 35.07582 | 120.73073 | 35225 ft | 413 kts | 328° |
| 2026-05-08 11:33 | 35.12911 | 120.70464 | 35233 ft | 413 kts | 328° |
| 2026-05-08 11:33 | 35.18279 | 120.67847 | 35230 ft | 413 kts | 328° |
| 2026-05-08 11:34 | 35.23596 | 120.65273 | 35229 ft | 414 kts | 328° |
| 2026-05-08 11:34 | 35.28973 | 120.62659 | 35228 ft | 415 kts | 328° |
| 2026-05-08 11:35 | 35.34286 | 120.60072 | 35230 ft | 414 kts | 328° |
| 2026-05-08 11:35 | 35.39620 | 120.57474 | 35231 ft | 412 kts | 328° |
| 2026-05-08 11:36 | 35.44967 | 120.54896 | 35228 ft | 412 kts | 329° |
| 2026-05-08 11:36 | 35.50281 | 120.52325 | 35223 ft | 412 kts | 328° |
| 2026-05-08 11:37 | 35.55627 | 120.49723 | 35227 ft | 412 kts | 328° |
| 2026-05-08 11:37 | 35.60933 | 120.47137 | 35222 ft | 412 kts | 328° |
| 2026-05-08 11:38 | 35.66265 | 120.44531 | 35230 ft | 411 kts | 328° |
| 2026-05-08 11:38 | 35.71548 | 120.41944 | 35226 ft | 411 kts | 328° |
| 2026-05-08 11:39 | 35.76861 | 120.39341 | 35226 ft | 411 kts | 328° |
| 2026-05-08 11:39 | 35.82174 | 120.36729 | 35216 ft | 409 kts | 328° |
| 2026-05-08 11:40 | 35.87441 | 120.34177 | 35225 ft | 413 kts | 331° |
| 2026-05-08 11:40 | 35.90316 | 120.33337 | 35224 ft | 428 kts | 341° |
| 2026-05-08 11:40 | 35.93321 | 120.33102 | 35220 ft | 443 kts | 350° |
| 2026-05-08 11:40 | 35.96432 | 120.33513 | 35224 ft | 459 kts | 360° |
| 2026-05-08 11:41 | 35.99544 | 120.34631 | 35224 ft | 475 kts | 11° |
| 2026-05-08 11:41 | 36.02535 | 120.36491 | 35214 ft | 492 kts | 22° |
| 2026-05-08 11:41 | 36.05378 | 120.38959 | 35218 ft | 500 kts | 27° |
| 2026-05-08 11:42 | 36.10906 | 120.44133 | 35209 ft | 493 kts | 21° |
| 2026-05-08 11:42 | 36.13866 | 120.46157 | 35215 ft | 479 kts | 13° |
| 2026-05-08 11:42 | 36.16937 | 120.47589 | 35216 ft | 465 kts | 4° |
| 2026-05-08 11:42 | 36.20054 | 120.48442 | 35217 ft | 452 kts | 356° |
| 2026-05-08 11:43 | 36.23145 | 120.48797 | 35223 ft | 444 kts | 351° |
| 2026-05-08 11:43 | 36.29275 | 120.49112 | 35222 ft | 442 kts | 351° |
| 2026-05-08 11:44 | 36.35463 | 120.49902 | 35223 ft | 451 kts | 357° |
| 2026-05-08 11:44 | 36.41637 | 120.51556 | 35217 ft | 460 kts | 4° |
| 2026-05-08 11:45 | 36.47761 | 120.53986 | 35221 ft | 465 kts | 6° |
| 2026-05-08 11:45 | 36.53937 | 120.56152 | 35216 ft | 455 kts | 1° |
| 2026-05-08 11:46 | 36.60123 | 120.57497 | 35230 ft | 449 kts | 356° |
| 2026-05-08 11:46 | 36.66281 | 120.58563 | 35222 ft | 447 kts | 356° |
| 2026-05-08 11:47 | 36.72412 | 120.59612 | 35219 ft | 446 kts | 356° |
| 2026-05-08 11:47 | 36.78555 | 120.60674 | 35226 ft | 445 kts | 356° |
| 2026-05-08 11:48 | 36.84643 | 120.61729 | 35229 ft | 445 kts | 356° |
| 2026-05-08 11:48 | 36.90776 | 120.62793 | 35225 ft | 445 kts | 356° |
| 2026-05-08 11:49 | 36.96915 | 120.63895 | 35224 ft | 446 kts | 357° |
| 2026-05-08 11:49 | 37.03014 | 120.65040 | 35228 ft | 444 kts | 358° |
| 2026-05-08 11:50 | 37.09153 | 120.66189 | 35225 ft | 445 kts | 358° |
| 2026-05-08 11:50 | 37.15278 | 120.67336 | 35225 ft | 444 kts | 358° |
| 2026-05-08 11:51 | 37.21401 | 120.68481 | 35221 ft | 445 kts | 358° |
| 2026-05-08 11:51 | 37.27484 | 120.69623 | 35225 ft | 444 kts | 358° |
| 2026-05-08 11:52 | 37.33633 | 120.70777 | 35217 ft | 445 kts | 358° |
| 2026-05-08 11:52 | 37.39733 | 120.71926 | 35227 ft | 443 kts | 358° |
| 2026-05-08 11:53 | 37.45787 | 120.73064 | 35216 ft | 442 kts | 358° |
| 2026-05-08 11:53 | 37.51878 | 120.74213 | 35215 ft | 443 kts | 358° |
| 2026-05-08 11:54 | 37.57979 | 120.75352 | 35219 ft | 442 kts | 357° |
| 2026-05-08 11:54 | 37.64045 | 120.76155 | 35210 ft | 438 kts | 355° |
| 2026-05-08 11:55 | 37.70093 | 120.76865 | 35220 ft | 437 kts | 355° |
| 2026-05-08 11:55 | 37.76145 | 120.77582 | 35206 ft | 437 kts | 355° |
| 2026-05-08 11:56 | 37.82145 | 120.78299 | 35220 ft | 435 kts | 355° |
| 2026-05-08 11:56 | 37.88188 | 120.79018 | 35217 ft | 437 kts | 355° |
| 2026-05-08 11:57 | 37.94233 | 120.79960 | 35214 ft | 444 kts | 0° |
| 2026-05-08 11:57 | 38.00320 | 120.81898 | 35200 ft | 453 kts | 8° |
| 2026-05-08 11:58 | 38.06221 | 120.84908 | 35192 ft | 463 kts | 16° |
| 2026-05-08 11:58 | 38.11903 | 120.88917 | 35178 ft | 470 kts | 21° |
| 2026-05-08 11:59 | 38.20144 | 120.95714 | 35162 ft | 482 kts | 30° |
| 2026-05-08 11:59 | 38.24929 | 121.01823 | 35190 ft | 498 kts | 43° |
| 2026-05-08 12:00 | 38.28720 | 121.09323 | 35194 ft | 511 kts | 57° |
| 2026-05-08 12:00 | 38.31618 | 121.17590 | 35170 ft | 513 kts | 60° |
| 2026-05-08 12:01 | 38.34409 | 121.25873 | 35184 ft | 513 kts | 59° |
| 2026-05-08 12:01 | 38.37277 | 121.34212 | 35185 ft | 513 kts | 59° |
| 2026-05-08 12:02 | 38.40127 | 121.42466 | 35193 ft | 512 kts | 59° |
| 2026-05-08 12:02 | 38.43179 | 121.50625 | 35183 ft | 509 kts | 56° |
| 2026-05-08 12:03 | 38.46399 | 121.58637 | 35375 ft | 508 kts | 56° |
| 2026-05-08 12:03 | 38.47998 | 121.62606 | 35191 ft | 508 kts | 56° |
| 2026-05-08 12:03 | 38.49606 | 121.66618 | 35188 ft | 507 kts | 56° |
| 2026-05-08 12:04 | 38.52796 | 121.74609 | 35199 ft | 509 kts | 56° |
| 2026-05-08 12:04 | 38.56000 | 121.82669 | 35292 ft | 507 kts | 57° |
| 2026-05-08 12:05 | 38.59170 | 121.90672 | 35224 ft | 504 kts | 57° |
| 2026-05-08 12:05 | 38.62320 | 121.98633 | 35204 ft | 504 kts | 57° |
| 2026-05-08 12:06 | 38.65516 | 122.06578 | 35202 ft | 500 kts | 53° |
| 2026-05-08 12:06 | 38.69431 | 122.13725 | 35215 ft | 487 kts | 41° |
| 2026-05-08 12:07 | 38.74206 | 122.19674 | 35202 ft | 476 kts | 30° |
| 2026-05-08 12:07 | 38.79597 | 122.24377 | 35186 ft | 464 kts | 23° |
| 2026-05-08 12:08 | 38.85087 | 122.28612 | 35189 ft | 463 kts | 22° |
| 2026-05-08 12:08 | 38.90596 | 122.32918 | 35185 ft | 463 kts | 24° |
| 2026-05-08 12:09 | 38.96050 | 122.37242 | 35183 ft | 463 kts | 24° |
| 2026-05-08 12:09 | 39.01510 | 122.41582 | 35185 ft | 462 kts | 24° |
| 2026-05-08 12:10 | 39.06982 | 122.45940 | 35187 ft | 463 kts | 23° |
| 2026-05-08 12:10 | 39.12404 | 122.50263 | 35197 ft | 461 kts | 24° |
| 2026-05-08 12:11 | 39.17863 | 122.54624 | 35192 ft | 461 kts | 24° |
| 2026-05-08 12:11 | 39.23288 | 122.58966 | 35189 ft | 461 kts | 24° |
| 2026-05-08 12:12 | 39.28788 | 122.63202 | 35186 ft | 457 kts | 21° |
| 2026-05-08 12:12 | 39.34343 | 122.67158 | 35192 ft | 456 kts | 21° |
| 2026-05-08 12:13 | 39.39875 | 122.71089 | 35186 ft | 456 kts | 21° |
| 2026-05-08 12:13 | 39.45440 | 122.75059 | 35187 ft | 456 kts | 21° |
| 2026-05-08 12:14 | 39.50963 | 122.79009 | 35186 ft | 456 kts | 21° |
| 2026-05-08 12:14 | 39.56490 | 122.82973 | 35191 ft | 454 kts | 21° |
| 2026-05-08 12:15 | 39.62009 | 122.86938 | 35186 ft | 454 kts | 21° |
| 2026-05-08 12:15 | 39.67529 | 122.90910 | 35191 ft | 453 kts | 21° |
| 2026-05-08 12:16 | 39.73015 | 122.94865 | 35187 ft | 454 kts | 21° |
| 2026-05-08 12:16 | 39.78545 | 122.98860 | 35184 ft | 454 kts | 21° |
| 2026-05-08 12:17 | 39.84038 | 123.02837 | 35189 ft | 452 kts | 21° |
| 2026-05-08 12:17 | 39.89521 | 123.06812 | 35185 ft | 452 kts | 21° |
| 2026-05-08 12:18 | 39.95005 | 123.10795 | 35192 ft | 452 kts | 21° |
| 2026-05-08 12:18 | 40.00452 | 123.14759 | 35188 ft | 450 kts | 21° |
| 2026-05-08 12:19 | 40.05917 | 123.18740 | 35183 ft | 450 kts | 21° |
| 2026-05-08 12:19 | 40.11405 | 123.22684 | 35184 ft | 450 kts | 21° |
| 2026-05-08 12:20 | 40.16852 | 123.26605 | 35189 ft | 450 kts | 21° |
| 2026-05-08 12:20 | 40.22338 | 123.30565 | 35189 ft | 450 kts | 21° |
| 2026-05-08 12:21 | 40.27820 | 123.34530 | 35189 ft | 450 kts | 21° |
| 2026-05-08 12:21 | 40.33087 | 123.38348 | 35186 ft | 450 kts | 21° |
| 2026-05-08 12:22 | 40.38559 | 123.42323 | 35182 ft | 450 kts | 21° |
| 2026-05-08 12:22 | 40.44011 | 123.46290 | 35191 ft | 449 kts | 21° |
| 2026-05-08 12:23 | 40.49449 | 123.50254 | 35185 ft | 449 kts | 21° |
| 2026-05-08 12:23 | 40.54897 | 123.54233 | 35189 ft | 449 kts | 22° |
| 2026-05-08 12:24 | 40.60337 | 123.58214 | 35188 ft | 448 kts | 21° |
| 2026-05-08 12:24 | 40.65782 | 123.62196 | 35190 ft | 448 kts | 21° |
| 2026-05-08 12:25 | 40.71198 | 123.66167 | 35189 ft | 448 kts | 22° |
| 2026-05-08 12:25 | 40.76651 | 123.70172 | 35189 ft | 448 kts | 22° |
| 2026-05-08 12:26 | 40.82093 | 123.74181 | 35195 ft | 448 kts | 22° |
| 2026-05-08 12:26 | 40.87529 | 123.78109 | 35194 ft | 447 kts | 21° |
| 2026-05-08 12:27 | 40.93023 | 123.82015 | 35200 ft | 447 kts | 21° |
| 2026-05-08 12:27 | 40.98444 | 123.85884 | 35196 ft | 446 kts | 22° |
| 2026-05-08 12:28 | 41.03917 | 123.89803 | 35203 ft | 446 kts | 22° |
| 2026-05-08 12:28 | 41.09346 | 123.93700 | 35200 ft | 446 kts | 22° |
| 2026-05-08 12:29 | 41.14811 | 123.97633 | 35198 ft | 446 kts | 22° |
| 2026-05-08 12:29 | 41.19956 | 124.01341 | 35194 ft | 445 kts | 22° |
| 2026-05-08 12:30 | 41.25389 | 124.05265 | 35196 ft | 446 kts | 22° |
| 2026-05-08 12:30 | 41.30739 | 124.09136 | 35190 ft | 445 kts | 22° |
| 2026-05-08 12:31 | 41.36143 | 124.13053 | 35191 ft | 445 kts | 22° |
| 2026-05-08 12:31 | 41.41563 | 124.16995 | 35185 ft | 445 kts | 22° |
| 2026-05-08 12:32 | 41.46966 | 124.21046 | 35183 ft | 445 kts | 23° |
| 2026-05-08 12:32 | 41.52329 | 124.25096 | 35189 ft | 445 kts | 23° |
| 2026-05-08 12:33 | 41.57703 | 124.29153 | 35182 ft | 445 kts | 23° |
| 2026-05-08 12:33 | 41.63080 | 124.33215 | 35182 ft | 445 kts | 23° |
| 2026-05-08 12:34 | 41.68452 | 124.37283 | 35184 ft | 445 kts | 23° |
| 2026-05-08 12:34 | 41.73832 | 124.41363 | 35180 ft | 444 kts | 23° |
| 2026-05-08 12:35 | 41.79201 | 124.45444 | 35175 ft | 444 kts | 23° |
| 2026-05-08 12:35 | 41.84526 | 124.49500 | 35173 ft | 443 kts | 23° |
| 2026-05-08 12:36 | 41.89901 | 124.53599 | 35180 ft | 443 kts | 24° |
| 2026-05-08 12:36 | 41.95234 | 124.57676 | 35173 ft | 443 kts | 24° |
| 2026-05-08 12:37 | 42.00621 | 124.61608 | 35176 ft | 442 kts | 21° |
| 2026-05-08 12:37 | 42.06108 | 124.65358 | 35177 ft | 442 kts | 21° |
| 2026-05-08 12:38 | 42.11563 | 124.69089 | 35167 ft | 442 kts | 21° |
| 2026-05-08 12:38 | 42.17027 | 124.72835 | 35168 ft | 441 kts | 21° |
| 2026-05-08 12:39 | 42.22521 | 124.76614 | 35170 ft | 442 kts | 22° |
| 2026-05-08 12:39 | 42.27977 | 124.80376 | 35174 ft | 441 kts | 22° |
| 2026-05-08 12:40 | 42.33404 | 124.84127 | 35167 ft | 440 kts | 22° |
| 2026-05-08 12:40 | 42.38844 | 124.87893 | 35178 ft | 440 kts | 22° |
| 2026-05-08 12:41 | 42.44288 | 124.91667 | 35169 ft | 440 kts | 22° |
| 2026-05-08 12:41 | 42.49749 | 124.95463 | 35167 ft | 440 kts | 22° |
| 2026-05-08 12:42 | 42.55174 | 124.99241 | 35175 ft | 440 kts | 22° |
| 2026-05-08 12:42 | 42.60617 | 125.03038 | 35173 ft | 440 kts | 22° |
| 2026-05-08 12:43 | 42.66023 | 125.06817 | 35170 ft | 440 kts | 22° |
| 2026-05-08 12:43 | 42.71440 | 125.10612 | 35160 ft | 439 kts | 22° |
| 2026-05-08 12:44 | 42.76853 | 125.14411 | 35168 ft | 439 kts | 22° |
| 2026-05-08 12:44 | 42.82265 | 125.18218 | 35170 ft | 439 kts | 22° |
| 2026-05-08 12:45 | 42.87705 | 125.22051 | 35159 ft | 438 kts | 22° |
| 2026-05-08 12:45 | 42.93076 | 125.25841 | 35155 ft | 438 kts | 22° |
| 2026-05-08 12:46 | 42.98518 | 125.29668 | 35146 ft | 438 kts | 22° |
| 2026-05-08 12:46 | 43.03918 | 125.33464 | 35156 ft | 438 kts | 22° |
| 2026-05-08 12:47 | 43.09331 | 125.37263 | 35141 ft | 438 kts | 22° |
| 2026-05-08 12:47 | 43.14755 | 125.41057 | 35140 ft | 438 kts | 22° |
| 2026-05-08 12:48 | 43.19969 | 125.44692 | 35141 ft | 437 kts | 22° |
| 2026-05-08 12:48 | 43.25454 | 125.48491 | 35137 ft | 436 kts | 22° |
| 2026-05-08 12:49 | 43.30877 | 125.52230 | 35143 ft | 436 kts | 22° |
| 2026-05-08 12:49 | 43.36266 | 125.55931 | 35142 ft | 436 kts | 22° |
| 2026-05-08 12:50 | 43.41674 | 125.59639 | 35131 ft | 435 kts | 22° |
| 2026-05-08 12:50 | 43.47067 | 125.63326 | 35137 ft | 435 kts | 22° |
| 2026-05-08 12:51 | 43.54978 | 125.68725 | 35121 ft | 435 kts | 22° |
| 2026-05-08 12:52 | 43.60415 | 125.72433 | 35123 ft | 434 kts | 22° |
| 2026-05-08 12:52 | 43.68522 | 125.77922 | 35114 ft | 435 kts | 22° |
| 2026-05-08 12:53 | 43.73938 | 125.81557 | 35116 ft | 434 kts | 22° |
| 2026-05-08 12:53 | 43.79370 | 125.85187 | 35106 ft | 425 kts | 22° |
| 2026-05-08 12:54 | 43.81968 | 125.86931 | 35101 ft | 408 kts | 22° |
| 2026-05-08 12:54 | 43.84455 | 125.88610 | 35112 ft | 392 kts | 22° |
| 2026-05-08 12:54 | 43.86841 | 125.90230 | 35100 ft | 376 kts | 22° |
| 2026-05-08 12:54 | 43.89158 | 125.91806 | 35111 ft | 364 kts | 22° |
| 2026-05-08 12:55 | 43.93672 | 125.94885 | 35107 ft | 364 kts | 22° |
| 2026-05-08 12:55 | 43.98206 | 125.97978 | 35121 ft | 364 kts | 22° |
| 2026-05-08 12:56 | 44.02728 | 126.01048 | 35110 ft | 363 kts | 22° |
| 2026-05-08 12:56 | 44.07289 | 126.04121 | 35102 ft | 363 kts | 22° |
| 2026-05-08 12:57 | 44.11834 | 126.07162 | 35094 ft | 364 kts | 22° |
| 2026-05-08 12:57 | 44.16370 | 126.10199 | 35117 ft | 363 kts | 22° |
| 2026-05-08 12:58 | 44.20920 | 126.13232 | 35089 ft | 362 kts | 22° |
| 2026-05-08 12:58 | 44.25459 | 126.16260 | 35103 ft | 362 kts | 22° |
| 2026-05-08 12:59 | 44.29991 | 126.19285 | 35101 ft | 362 kts | 22° |
| 2026-05-08 12:59 | 44.34535 | 126.22321 | 35101 ft | 362 kts | 22° |
| 2026-05-08 13:00 | 44.39062 | 126.25332 | 35099 ft | 362 kts | 22° |
| 2026-05-08 13:00 | 44.43616 | 126.28359 | 35113 ft | 362 kts | 22° |
| 2026-05-08 13:01 | 44.48141 | 126.31351 | 35097 ft | 361 kts | 22° |
| 2026-05-08 13:01 | 44.52690 | 126.34343 | 35117 ft | 362 kts | 22° |
| 2026-05-08 13:02 | 44.57230 | 126.37317 | 35092 ft | 362 kts | 22° |
| 2026-05-08 13:02 | 44.61772 | 126.40299 | 35098 ft | 362 kts | 22° |
| 2026-05-08 13:03 | 44.66334 | 126.43278 | 35098 ft | 362 kts | 22° |
| 2026-05-08 13:03 | 44.70896 | 126.46248 | 35100 ft | 361 kts | 22° |
| 2026-05-08 13:04 | 44.75449 | 126.49202 | 35097 ft | 361 kts | 22° |
| 2026-05-08 13:04 | 44.80008 | 126.52148 | 35096 ft | 361 kts | 21° |
| 2026-05-08 13:05 | 44.84560 | 126.55079 | 35084 ft | 361 kts | 21° |
| 2026-05-08 13:05 | 44.89114 | 126.57999 | 35080 ft | 360 kts | 21° |
| 2026-05-08 13:06 | 44.93670 | 126.60909 | 35075 ft | 360 kts | 21° |
| 2026-05-08 13:06 | 44.98201 | 126.63799 | 35074 ft | 360 kts | 21° |
| 2026-05-08 13:07 | 45.02786 | 126.66708 | 35075 ft | 360 kts | 22° |
| 2026-05-08 13:07 | 45.07305 | 126.69571 | 35092 ft | 361 kts | 22° |
| 2026-05-08 13:08 | 45.11861 | 126.72447 | 35073 ft | 360 kts | 22° |
| 2026-05-08 13:08 | 45.16275 | 126.75242 | 35087 ft | 360 kts | 22° |
| 2026-05-08 13:09 | 45.20829 | 126.78120 | 35072 ft | 360 kts | 22° |
| 2026-05-08 13:09 | 45.25431 | 126.81012 | 35081 ft | 360 kts | 22° |
| 2026-05-08 13:10 | 45.29996 | 126.83875 | 35074 ft | 360 kts | 22° |
| 2026-05-08 13:10 | 45.34551 | 126.86732 | 35064 ft | 360 kts | 22° |
| 2026-05-08 13:11 | 45.39144 | 126.89606 | 35070 ft | 360 kts | 22° |
| 2026-05-08 13:11 | 45.43715 | 126.92467 | 35071 ft | 360 kts | 22° |
| 2026-05-08 13:12 | 45.48275 | 126.95307 | 35068 ft | 360 kts | 22° |
| 2026-05-08 13:12 | 45.52864 | 126.98157 | 35060 ft | 359 kts | 22° |
| 2026-05-08 13:13 | 45.57419 | 127.00975 | 35059 ft | 359 kts | 22° |
| 2026-05-08 13:13 | 45.62017 | 127.03808 | 35058 ft | 359 kts | 21° |
| 2026-05-08 13:14 | 45.66580 | 127.06622 | 35059 ft | 359 kts | 21° |
| 2026-05-08 13:14 | 45.71178 | 127.09466 | 35062 ft | 359 kts | 21° |
| 2026-05-08 13:15 | 45.75741 | 127.12286 | 35064 ft | 359 kts | 22° |
| 2026-05-08 13:15 | 45.80323 | 127.15097 | 35054 ft | 358 kts | 21° |
| 2026-05-08 13:16 | 45.84883 | 127.17886 | 35055 ft | 359 kts | 21° |
| 2026-05-08 13:16 | 45.89483 | 127.20692 | 35049 ft | 358 kts | 21° |
| 2026-05-08 13:17 | 45.94050 | 127.23485 | 35051 ft | 359 kts | 21° |
| 2026-05-08 13:17 | 45.98628 | 127.26299 | 35045 ft | 358 kts | 21° |
| 2026-05-08 13:18 | 46.03201 | 127.29112 | 35042 ft | 358 kts | 21° |
| 2026-05-08 13:18 | 46.07758 | 127.31911 | 35053 ft | 358 kts | 21° |
| 2026-05-08 13:19 | 46.12332 | 127.34712 | 35045 ft | 358 kts | 21° |
| 2026-05-08 13:19 | 46.16915 | 127.37505 | 35038 ft | 357 kts | 21° |
| 2026-05-08 13:20 | 46.21399 | 127.40237 | 35043 ft | 357 kts | 21° |
| 2026-05-08 13:20 | 46.25973 | 127.43031 | 35039 ft | 357 kts | 21° |
| 2026-05-08 13:21 | 46.30534 | 127.45818 | 35044 ft | 358 kts | 21° |